Terminal Aerodrome Forecast
Issued by NWS St Louis, MO

Home | Current Version | Previous Version | Graphics & Text | Print | Product List | Glossary On
Versions: 1 2 3 4 5 6 7 8 9 10 11 12 13 14 15 16 17 18 19 20 21 22 23 24
000
FTUS43 KLSX 230051 AAA
TAFSTL
TAF AMD
KSTL 230051Z 2301/2406 25010KT P6SM FEW070
     FM230300 26004KT P6SM VCTS SCT050CB
      TEMPO 2304/2306 3SM TSRA OVC025CB
     FM230700 25004KT P6SM BKN050
     FM231200 31004KT P6SM BKN050
     FM231900 VRB03KT P6SM SCT200
     FM240000 30004KT P6SM FEW050=

USA.gov is the U.S. government's official web portal to all federal, state and local government web resources and services.